Mariner A — 9HVA7 — position and weather

sailwx.info

Track history (hours):
 
Tides and Currents Weather Stations Pressure Air Temp Water Temp Dewpoint Dewpoint Depression Visibility Wind Speed Wind Dir Waves Ship Positions

Mariner A

Last reported at 2017-Feb-18 07:28 UTC. Time now 2017-Mar-23 10:40 UTC.
Position N 27°55' W 013°38'.
Warning: this ship's position is 33 days out of date.

Length 176 m; draft 10 m.

Type: Ship (hazmat cat A). MMSI: 215817000.

Date/timePositionNaut miles runAvg speedWind from/ knotsBaromVisibWave heightAir tempDewpointWater temp
2017-Feb-18 07:28N 27°55' W 013°38'1112.4
2017-Feb-18 06:33N 28°04' W 013°30'1212.3
2017-Feb-18 05:33N 28°14' W 013°22'1312.5
2017-Feb-18 04:30N 28°25' W 013°14'1212.5
2017-Feb-18 03:33N 28°35' W 013°06'1612.6
2017-Feb-18 02:16N 28°48' W 012°56'912.8
2017-Feb-18 01:32N 28°56' W 012°50'1312.8
2017-Feb-18 00:33N 29°06' W 012°42'1312.9
2017-Feb-17 23:32N 29°17' W 012°34'2712.8
2017-Feb-17 21:23N 29°40' W 012°16'2912.7
2017-Feb-17 19:05N 30°04' W 011°57'11012.3
2017-Feb-17 10:05N 31°36' W 010°45'711.9
2017-Feb-17 09:32N 31°41' W 010°41'1312.1
2017-Feb-17 08:28N 31°52' W 010°33'1112.1
2017-Feb-17 07:33N 32°01' W 010°25'1313.1
2017-Feb-17 06:33N 32°12' W 010°17'1212.1
2017-Feb-17 05:33N 32°22' W 010°08'30611.6
2017-Feb-16 03:14N 35°57' W 005°46'1014.0
2017-Feb-16 02:33N 35°58' W 005°35'1111.6
2017-Feb-16 01:33N 36°04' W 005°23'3 2.5
2017-Feb-16 00:22N 36°07' W 005°22'0 0.2
2017-Feb-15 23:22N 36°07' W 005°22'0 0.0
2017-Feb-15 22:33N 36°07' W 005°22'0 0.0
2017-Feb-15 21:25N 36°07' W 005°22'0 0.1
2017-Feb-15 20:33N 36°07' W 005°22'0 0.1
2017-Feb-15 19:32N 36°07' W 005°22'0 0.0
2017-Feb-15 18:33N 36°07' W 005°22'0 0.1
2017-Feb-15 17:33N 36°07' W 005°22'4 4.4
2017-Feb-15 16:33N 36°04' W 005°19'  
2017-Feb-12 13:33N 36°57' E 013°40'1212.3
2017-Feb-12 12:33N 36°52' E 013°54'1312.6
2017-Feb-12 11:33N 36°47' E 014°09'1212.4
2017-Feb-12 10:33N 36°42' E 014°23'1212.1
2017-Feb-12 09:33N 36°37' E 014°36'1411.8
2017-Feb-12 08:22N 36°35' E 014°54'  
Track history (hours):
 
Tides and Currents Weather Stations Pressure Air Temp Water Temp Dewpoint Dewpoint Depression Visibility Wind Speed Wind Dir Waves Ship Positions

Mariner A

Last reported at 2017-Feb-18 07:28 UTC. Time now 2017-Mar-23 10:40 UTC.
Position N 27°55' W 013°38'.
Warning: this ship's position is 33 days out of date.

Length 176 m; draft 10 m.

Type: Ship (hazmat cat A). MMSI: 215817000.

Date/timePositionNaut miles runAvg speedWind from/ knotsBaromVisibWave heightAir tempDewpointWater temp
2017-Feb-18 07:28N 27°55' W 013°38'1112.4
2017-Feb-18 06:33N 28°04' W 013°30'1212.3
2017-Feb-18 05:33N 28°14' W 013°22'1312.5
2017-Feb-18 04:30N 28°25' W 013°14'1212.5
2017-Feb-18 03:33N 28°35' W 013°06'1612.6
2017-Feb-18 02:16N 28°48' W 012°56'912.8
2017-Feb-18 01:32N 28°56' W 012°50'1312.8
2017-Feb-18 00:33N 29°06' W 012°42'1312.9
2017-Feb-17 23:32N 29°17' W 012°34'2712.8
2017-Feb-17 21:23N 29°40' W 012°16'2912.7
2017-Feb-17 19:05N 30°04' W 011°57'11012.3
2017-Feb-17 10:05N 31°36' W 010°45'711.9
2017-Feb-17 09:32N 31°41' W 010°41'1312.1
2017-Feb-17 08:28N 31°52' W 010°33'1112.1
2017-Feb-17 07:33N 32°01' W 010°25'1313.1
2017-Feb-17 06:33N 32°12' W 010°17'1212.1
2017-Feb-17 05:33N 32°22' W 010°08'30611.6
2017-Feb-16 03:14N 35°57' W 005°46'1014.0
2017-Feb-16 02:33N 35°58' W 005°35'1111.6
2017-Feb-16 01:33N 36°04' W 005°23'3 2.5
2017-Feb-16 00:22N 36°07' W 005°22'0 0.2
2017-Feb-15 23:22N 36°07' W 005°22'0 0.0
2017-Feb-15 22:33N 36°07' W 005°22'0 0.0
2017-Feb-15 21:25N 36°07' W 005°22'0 0.1
2017-Feb-15 20:33N 36°07' W 005°22'0 0.1
2017-Feb-15 19:32N 36°07' W 005°22'0 0.0
2017-Feb-15 18:33N 36°07' W 005°22'0 0.1
2017-Feb-15 17:33N 36°07' W 005°22'4 4.4
2017-Feb-15 16:33N 36°04' W 005°19'  
2017-Feb-12 13:33N 36°57' E 013°40'1212.3
2017-Feb-12 12:33N 36°52' E 013°54'1312.6
2017-Feb-12 11:33N 36°47' E 014°09'1212.4
2017-Feb-12 10:33N 36°42' E 014°23'1212.1
2017-Feb-12 09:33N 36°37' E 014°36'1411.8
2017-Feb-12 08:22N 36°35' E 014°54'  

Dump ship's entire track history